sensor_id;sensor_type;location;lat;lon;timestamp;pressure;altitude;pressure_sealevel;temperature;humidity
37878;BME280;23715;53.652;8.516;2023-10-08T00:23:54;102381.34;;;16.27;100.00
37878;BME280;23715;53.652;8.516;2023-10-08T00:29:03;102392.80;;;16.09;100.00
37878;BME280;23715;53.652;8.516;2023-10-08T00:34:08;102400.66;;;16.12;100.00
37878;BME280;23715;53.652;8.516;2023-10-08T00:39:11;102410.16;;;16.12;100.00
37878;BME280;23715;53.652;8.516;2023-10-08T00:49:26;102440.51;;;16.12;100.00
37878;BME280;23715;53.652;8.516;2023-10-08T00:54:44;102443.03;;;15.98;100.00
37878;BME280;23715;53.652;8.516;2023-10-08T01:00:05;102440.67;;;15.99;100.00
37878;BME280;23715;53.652;8.516;2023-10-08T01:05:15;102422.87;;;16.12;100.00
37878;BME280;23715;53.652;8.516;2023-10-08T01:10:23;102406.28;;;15.99;100.00
37878;BME280;23715;53.652;8.516;2023-10-08T01:15:51;102475.13;;;15.81;100.00
37878;BME280;23715;53.652;8.516;2023-10-08T01:21:02;102438.86;;;15.94;100.00
37878;BME280;23715;53.652;8.516;2023-10-08T01:26:07;102442.95;;;16.20;100.00
37878;BME280;23715;53.652;8.516;2023-10-08T01:31:39;102402.69;;;16.26;100.00
37878;BME280;23715;53.652;8.516;2023-10-08T01:36:45;102408.30;;;16.18;100.00
37878;BME280;23715;53.652;8.516;2023-10-08T01:41:52;102407.78;;;15.92;100.00
37878;BME280;23715;53.652;8.516;2023-10-08T01:47:07;102389.55;;;16.15;100.00
37878;BME280;23715;53.652;8.516;2023-10-08T01:52:26;102375.06;;;16.26;100.00
37878;BME280;23715;53.652;8.516;2023-10-08T01:57:42;102387.56;;;16.17;100.00
37878;BME280;23715;53.652;8.516;2023-10-08T02:02:54;102371.91;;;16.15;100.00
37878;BME280;23715;53.652;8.516;2023-10-08T02:08:07;102379.07;;;16.16;100.00
37878;BME280;23715;53.652;8.516;2023-10-08T02:13:26;102376.78;;;16.00;100.00
37878;BME280;23715;53.652;8.516;2023-10-08T02:18:50;102379.07;;;16.16;100.00
37878;BME280;23715;53.652;8.516;2023-10-08T02:24:17;102379.75;;;16.03;100.00
37878;BME280;23715;53.652;8.516;2023-10-08T02:29:25;102412.16;;;16.31;100.00
37878;BME280;23715;53.652;8.516;2023-10-08T02:34:29;102415.82;;;16.63;100.00
37878;BME280;23715;53.652;8.516;2023-10-08T02:39:34;102411.66;;;16.58;100.00
37878;BME280;23715;53.652;8.516;2023-10-08T02:44:40;102407.48;;;16.54;100.00
37878;BME280;23715;53.652;8.516;2023-10-08T02:49:45;102401.52;;;16.39;100.00
37878;BME280;23715;53.652;8.516;2023-10-08T02:54:50;102418.72;;;16.29;100.00
37878;BME280;23715;53.652;8.516;2023-10-08T02:59:58;102416.99;;;16.54;100.00
37878;BME280;23715;53.652;8.516;2023-10-08T03:04:59;102403.54;;;16.53;100.00
37878;BME280;23715;53.652;8.516;2023-10-08T03:10:02;102421.12;;;16.64;100.00
37878;BME280;23715;53.652;8.516;2023-10-08T03:15:15;102432.46;;;16.64;100.00
37878;BME280;23715;53.652;8.516;2023-10-08T03:20:19;102433.80;;;16.48;100.00
37878;BME280;23715;53.652;8.516;2023-10-08T03:25:39;102435.84;;;16.35;100.00
37878;BME280;23715;53.652;8.516;2023-10-08T03:30:52;102452.52;;;16.04;100.00
37878;BME280;23715;53.652;8.516;2023-10-08T03:35:56;102454.91;;;16.18;100.00
37878;BME280;23715;53.652;8.516;2023-10-08T03:41:12;102437.64;;;15.87;100.00
37878;BME280;23715;53.652;8.516;2023-10-08T03:46:27;102450.69;;;15.93;100.00
37878;BME280;23715;53.652;8.516;2023-10-08T03:51:34;102451.72;;;15.80;100.00
37878;BME280;23715;53.652;8.516;2023-10-08T04:02:36;102461.85;;;16.16;100.00
37878;BME280;23715;53.652;8.516;2023-10-08T04:08:17;102469.58;;;15.89;100.00
37878;BME280;23715;53.652;8.516;2023-10-08T04:13:51;102483.55;;;16.22;100.00
37878;BME280;23715;53.652;8.516;2023-10-08T04:19:34;102501.92;;;16.24;100.00
37878;BME280;23715;53.652;8.516;2023-10-08T04:25:03;102522.34;;;16.02;100.00
37878;BME280;23715;53.652;8.516;2023-10-08T04:30:13;102504.90;;;16.15;100.00
37878;BME280;23715;53.652;8.516;2023-10-08T04:41:03;102504.37;;;16.22;100.00
37878;BME280;23715;53.652;8.516;2023-10-08T04:46:05;102495.36;;;16.27;100.00
37878;BME280;23715;53.652;8.516;2023-10-08T04:51:07;102504.23;;;16.29;100.00
37878;BME280;23715;53.652;8.516;2023-10-08T04:56:10;102503.71;;;16.35;100.00
37878;BME280;23715;53.652;8.516;2023-10-08T05:01:16;102511.55;;;16.23;100.00
37878;BME280;23715;53.652;8.516;2023-10-08T05:16:35;102514.53;;;16.46;100.00
37878;BME280;23715;53.652;8.516;2023-10-08T05:21:37;102521.93;;;16.12;100.00
37878;BME280;23715;53.652;8.516;2023-10-08T05:26:39;102518.52;;;16.36;100.00
37878;BME280;23715;53.652;8.516;2023-10-08T05:31:44;102517.49;;;16.16;100.00
37878;BME280;23715;53.652;8.516;2023-10-08T05:36:52;102513.12;;;16.25;100.00
37878;BME280;23715;53.652;8.516;2023-10-08T05:42:13;102528.39;;;16.43;100.00
37878;BME280;23715;53.652;8.516;2023-10-08T05:47:18;102528.39;;;16.43;100.00
37878;BME280;23715;53.652;8.516;2023-10-08T05:52:32;102551.59;;;16.42;100.00
37878;BME280;23715;53.652;8.516;2023-10-08T05:57:35;102550.45;;;16.44;100.00
37878;BME280;23715;53.652;8.516;2023-10-08T06:02:43;102557.92;;;16.25;100.00
37878;BME280;23715;53.652;8.516;2023-10-08T06:07:47;102572.90;;;15.97;100.00
37878;BME280;23715;53.652;8.516;2023-10-08T06:12:49;102574.52;;;15.94;100.00
37878;BME280;23715;53.652;8.516;2023-10-08T06:17:51;102581.94;;;15.80;100.00
37878;BME280;23715;53.652;8.516;2023-10-08T06:22:59;102577.09;;;15.61;100.00
37878;BME280;23715;53.652;8.516;2023-10-08T06:33:12;102574.66;;;15.75;100.00
37878;BME280;23715;53.652;8.516;2023-10-08T06:38:14;102584.73;;;15.62;100.00
37878;BME280;23715;53.652;8.516;2023-10-08T06:43:16;102591.55;;;15.73;100.00
37878;BME280;23715;53.652;8.516;2023-10-08T06:48:21;102593.84;;;15.72;100.00
37878;BME280;23715;53.652;8.516;2023-10-08T06:53:26;102608.67;;;15.79;100.00
37878;BME280;23715;53.652;8.516;2023-10-08T06:58:33;102614.90;;;16.42;100.00
37878;BME280;23715;53.652;8.516;2023-10-08T07:03:33;102629.25;;;16.82;100.00
37878;BME280;23715;53.652;8.516;2023-10-08T07:08:42;102615.84;;;17.02;100.00
37878;BME280;23715;53.652;8.516;2023-10-08T07:13:40;102608.80;;;16.99;100.00
37878;BME280;23715;53.652;8.516;2023-10-08T07:18:41;102627.26;;;17.11;100.00
37878;BME280;23715;53.652;8.516;2023-10-08T07:23:43;102635.59;;;17.04;100.00
37878;BME280;23715;53.652;8.516;2023-10-08T07:28:58;102646.82;;;17.05;100.00
37878;BME280;23715;53.652;8.516;2023-10-08T07:33:59;102648.53;;;17.11;100.00
37878;BME280;23715;53.652;8.516;2023-10-08T07:39:01;102655.38;;;17.27;100.00
37878;BME280;23715;53.652;8.516;2023-10-08T07:44:08;102656.61;;;17.28;100.00
37878;BME280;23715;53.652;8.516;2023-10-08T07:49:10;102663.75;;;17.29;100.00
37878;BME280;23715;53.652;8.516;2023-10-08T07:54:14;102664.77;;;17.28;100.00
37878;BME280;23715;53.652;8.516;2023-10-08T07:59:20;102659.27;;;17.40;100.00
37878;BME280;23715;53.652;8.516;2023-10-08T08:04:36;102673.53;;;17.53;100.00
37878;BME280;23715;53.652;8.516;2023-10-08T08:09:25;102693.73;;;17.60;100.00
37878;BME280;23715;53.652;8.516;2023-10-08T08:14:27;102692.84;;;17.65;100.00
37878;BME280;23715;53.652;8.516;2023-10-08T08:19:32;102692.05;;;17.74;100.00
37878;BME280;23715;53.652;8.516;2023-10-08T08:24:30;102696.77;;;17.72;100.00
37878;BME280;23715;53.652;8.516;2023-10-08T08:29:32;102701.88;;;17.81;100.00
37878;BME280;23715;53.652;8.516;2023-10-08T08:34:37;102697.03;;;17.90;100.00
37878;BME280;23715;53.652;8.516;2023-10-08T08:39:39;102715.61;;;17.91;100.00
37878;BME280;23715;53.652;8.516;2023-10-08T08:44:43;102729.48;;;18.03;100.00
37878;BME280;23715;53.652;8.516;2023-10-08T09:06:11;102735.66;;;18.05;100.00
37878;BME280;23715;53.652;8.516;2023-10-08T09:11:16;102740.67;;;18.16;100.00
37878;BME280;23715;53.652;8.516;2023-10-08T09:16:16;102749.09;;;18.12;100.00
37878;BME280;23715;53.652;8.516;2023-10-08T09:21:17;102748.55;;;18.34;100.00
37878;BME280;23715;53.652;8.516;2023-10-08T09:26:28;102753.53;;;18.13;100.00
37878;BME280;23715;53.652;8.516;2023-10-08T09:31:31;102751.73;;;18.08;100.00
37878;BME280;23715;53.652;8.516;2023-10-08T09:36:34;102753.86;;;18.20;100.00
37878;BME280;23715;53.652;8.516;2023-10-08T09:41:40;102756.84;;;18.17;100.00
37878;BME280;23715;53.652;8.516;2023-10-08T09:53:09;102749.83;;;18.14;100.00
37878;BME280;23715;53.652;8.516;2023-10-08T09:58:12;102750.39;;;17.87;100.00
37878;BME280;23715;53.652;8.516;2023-10-08T10:03:16;102761.66;;;17.77;100.00
37878;BME280;23715;53.652;8.516;2023-10-08T10:41:51;102682.98;;;18.01;100.00
37878;BME280;23715;53.652;8.516;2023-10-08T11:13:40;102754.80;;;18.25;100.00
37878;BME280;23715;53.652;8.516;2023-10-08T11:18:56;102747.28;;;18.53;100.00
37878;BME280;23715;53.652;8.516;2023-10-08T11:24:31;102730.08;;;18.63;100.00
37878;BME280;23715;53.652;8.516;2023-10-08T11:29:53;102745.36;;;18.60;100.00
37878;BME280;23715;53.652;8.516;2023-10-08T11:40:07;102754.03;;;19.19;100.00
37878;BME280;23715;53.652;8.516;2023-10-08T11:45:13;102728.46;;;19.01;100.00
37878;BME280;23715;53.652;8.516;2023-10-08T11:50:28;102730.97;;;18.88;100.00
37878;BME280;23715;53.652;8.516;2023-10-08T12:00:43;102685.61;;;18.87;100.00
37878;BME280;23715;53.652;8.516;2023-10-08T12:05:50;102686.26;;;18.85;100.00
37878;BME280;23715;53.652;8.516;2023-10-08T12:11:16;102707.72;;;18.59;100.00
37878;BME280;23715;53.652;8.516;2023-10-08T12:16:30;102714.34;;;18.51;100.00
37878;BME280;23715;53.652;8.516;2023-10-08T12:32:31;102707.35;;;18.83;100.00
37878;BME280;23715;53.652;8.516;2023-10-08T12:37:31;102720.52;;;18.94;100.00
37878;BME280;23715;53.652;8.516;2023-10-08T13:09:07;102716.91;;;18.68;100.00
37878;BME280;23715;53.652;8.516;2023-10-08T13:46:26;102722.35;;;18.68;100.00
37878;BME280;23715;53.652;8.516;2023-10-08T13:51:31;102720.29;;;18.76;100.00
37878;BME280;23715;53.652;8.516;2023-10-08T13:56:41;102719.28;;;18.67;100.00
37878;BME280;23715;53.652;8.516;2023-10-08T14:07:16;102735.25;;;18.41;100.00
37878;BME280;23715;53.652;8.516;2023-10-08T14:17:50;102732.19;;;18.65;100.00
37878;BME280;23715;53.652;8.516;2023-10-08T14:22:59;102711.22;;;18.56;100.00
37878;BME280;23715;53.652;8.516;2023-10-08T14:28:05;102708.42;;;18.21;100.00
37878;BME280;23715;53.652;8.516;2023-10-08T14:33:13;102698.38;;;18.27;100.00
37878;BME280;23715;53.652;8.516;2023-10-08T14:38:12;102687.23;;;18.24;100.00
37878;BME280;23715;53.652;8.516;2023-10-08T14:43:34;102688.64;;;18.19;100.00
37878;BME280;23715;53.652;8.516;2023-10-08T14:48:39;102680.42;;;18.49;100.00
37878;BME280;23715;53.652;8.516;2023-10-08T14:53:44;102676.86;;;18.08;100.00
37878;BME280;23715;53.652;8.516;2023-10-08T14:58:46;102671.46;;;18.03;100.00
37878;BME280;23715;53.652;8.516;2023-10-08T15:03:47;102685.25;;;17.74;100.00
37878;BME280;23715;53.652;8.516;2023-10-08T15:08:49;102682.12;;;17.58;100.00
37878;BME280;23715;53.652;8.516;2023-10-08T15:13:48;102668.59;;;17.47;100.00
37878;BME280;23715;53.652;8.516;2023-10-08T15:18:54;102668.28;;;17.76;100.00
37878;BME280;23715;53.652;8.516;2023-10-08T15:24:00;102603.78;;;17.83;100.00
37878;BME280;23715;53.652;8.516;2023-10-08T15:29:06;102674.77;;;17.49;100.00
37878;BME280;23715;53.652;8.516;2023-10-08T15:39:24;102664.26;;;17.50;100.00
37878;BME280;23715;53.652;8.516;2023-10-08T15:44:29;102661.03;;;17.29;100.00
37878;BME280;23715;53.652;8.516;2023-10-08T15:49:33;102659.51;;;17.15;100.00
37878;BME280;23715;53.652;8.516;2023-10-08T15:54:38;102641.33;;;17.16;100.00
37878;BME280;23715;53.652;8.516;2023-10-08T15:59:40;102611.45;;;17.31;100.00
37878;BME280;23715;53.652;8.516;2023-10-08T16:04:40;102555.28;;;17.57;100.00
37878;BME280;23715;53.652;8.516;2023-10-08T16:19:56;102651.77;;;17.00;100.00
37878;BME280;23715;53.652;8.516;2023-10-08T16:24:56;102604.72;;;17.20;100.00
37878;BME280;23715;53.652;8.516;2023-10-08T16:29:56;102600.27;;;17.04;100.00
37878;BME280;23715;53.652;8.516;2023-10-08T16:34:57;102588.28;;;17.01;100.00
37878;BME280;23715;53.652;8.516;2023-10-08T16:39:57;102619.06;;;16.95;100.00
37878;BME280;23715;53.652;8.516;2023-10-08T16:44:57;102619.64;;;16.67;100.00
37878;BME280;23715;53.652;8.516;2023-10-08T16:50:01;102637.64;;;16.79;100.00
37878;BME280;23715;53.652;8.516;2023-10-08T16:55:01;102642.97;;;16.64;100.00
37878;BME280;23715;53.652;8.516;2023-10-08T17:00:02;102606.15;;;16.82;100.00
37878;BME280;23715;53.652;8.516;2023-10-08T17:05:07;102591.25;;;16.97;100.00
37878;BME280;23715;53.652;8.516;2023-10-08T17:10:10;102610.76;;;17.03;100.00
37878;BME280;23715;53.652;8.516;2023-10-08T17:15:10;102615.75;;;16.81;100.00
37878;BME280;23715;53.652;8.516;2023-10-08T17:20:11;102629.25;;;16.82;100.00
37878;BME280;23715;53.652;8.516;2023-10-08T17:25:14;102623.67;;;16.89;100.00
37878;BME280;23715;53.652;8.516;2023-10-08T17:30:15;102607.60;;;16.81;100.00
37878;BME280;23715;53.652;8.516;2023-10-08T17:35:20;102572.46;;;16.73;100.00
37878;BME280;23715;53.652;8.516;2023-10-08T17:40:20;102562.11;;;16.62;100.00
37878;BME280;23715;53.652;8.516;2023-10-08T17:45:23;102562.94;;;16.47;100.00
37878;BME280;23715;53.652;8.516;2023-10-08T17:50:29;102570.28;;;16.56;100.00
37878;BME280;23715;53.652;8.516;2023-10-08T17:55:25;102570.91;;;16.54;100.00
37878;BME280;23715;53.652;8.516;2023-10-08T18:00:26;102557.55;;;16.68;100.00
37878;BME280;23715;53.652;8.516;2023-10-08T18:05:30;102537.90;;;16.70;100.00
37878;BME280;23715;53.652;8.516;2023-10-08T18:10:30;102504.64;;;16.83;100.00
37878;BME280;23715;53.652;8.516;2023-10-08T18:15:32;102505.57;;;17.09;100.00
37878;BME280;23715;53.652;8.516;2023-10-08T18:20:34;102524.86;;;17.27;100.00
37878;BME280;23715;53.652;8.516;2023-10-08T18:25:36;102509.47;;;17.01;100.00
37878;BME280;23715;53.652;8.516;2023-10-08T18:30:42;102492.50;;;16.61;100.00
37878;BME280;23715;53.652;8.516;2023-10-08T18:35:43;102499.71;;;16.77;100.00
37878;BME280;23715;53.652;8.516;2023-10-08T18:40:51;102496.42;;;16.94;100.00
37878;BME280;23715;53.652;8.516;2023-10-08T18:45:53;102466.28;;;17.07;100.00
37878;BME280;23715;53.652;8.516;2023-10-08T18:51:24;102488.74;;;16.94;100.00
37878;BME280;23715;53.652;8.516;2023-10-08T18:56:13;102490.34;;;16.96;100.00
37878;BME280;23715;53.652;8.516;2023-10-08T19:01:17;102473.36;;;16.62;100.00
37878;BME280;23715;53.652;8.516;2023-10-08T19:06:27;102463.47;;;16.40;100.00
37878;BME280;23715;53.652;8.516;2023-10-08T19:11:29;102477.21;;;16.27;100.00
37878;BME280;23715;53.652;8.516;2023-10-08T19:16:31;102451.78;;;16.34;100.00
37878;BME280;23715;53.652;8.516;2023-10-08T19:21:31;102443.20;;;16.44;100.00
37878;BME280;23715;53.652;8.516;2023-10-08T19:26:38;102440.77;;;16.41;100.00
37878;BME280;23715;53.652;8.516;2023-10-08T19:31:44;102407.23;;;16.52;100.00
37878;BME280;23715;53.652;8.516;2023-10-08T19:36:50;102401.02;;;16.40;100.00
37878;BME280;23715;53.652;8.516;2023-10-08T19:41:50;102393.44;;;16.49;100.00
37878;BME280;23715;53.652;8.516;2023-10-08T19:46:51;102395.46;;;16.42;100.00
37878;BME280;23715;53.652;8.516;2023-10-08T19:57:05;102391.64;;;16.38;100.00
37878;BME280;23715;53.652;8.516;2023-10-08T20:02:07;102387.13;;;16.33;100.00
37878;BME280;23715;53.652;8.516;2023-10-08T20:07:07;102378.48;;;16.34;100.00
37878;BME280;23715;53.652;8.516;2023-10-08T20:12:09;102378.86;;;16.29;100.00
37878;BME280;23715;53.652;8.516;2023-10-08T20:17:09;102375.73;;;16.39;100.00
37878;BME280;23715;53.652;8.516;2023-10-08T20:22:09;102372.37;;;16.42;100.00
37878;BME280;23715;53.652;8.516;2023-10-08T20:27:21;102355.51;;;16.53;100.00
37878;BME280;23715;53.652;8.516;2023-10-08T20:32:44;102351.66;;;16.56;100.00
37878;BME280;23715;53.652;8.516;2023-10-08T20:43:32;102321.48;;;16.49;100.00
37878;BME280;23715;53.652;8.516;2023-10-08T20:48:45;102322.78;;;16.39;100.00
37878;BME280;23715;53.652;8.516;2023-10-08T20:53:46;102344.47;;;16.45;100.00
37878;BME280;23715;53.652;8.516;2023-10-08T20:58:45;102358.59;;;16.39;100.00
37878;BME280;23715;53.652;8.516;2023-10-08T21:03:59;102375.19;;;16.25;100.00
37878;BME280;23715;53.652;8.516;2023-10-08T21:09:41;102355.44;;;16.28;100.00
37878;BME280;23715;53.652;8.516;2023-10-08T21:14:47;102373.17;;;16.32;100.00
37878;BME280;23715;53.652;8.516;2023-10-08T21:25:13;102359.95;;;16.12;100.00
37878;BME280;23715;53.652;8.516;2023-10-08T21:30:36;102341.70;;;16.14;100.00
37878;BME280;23715;53.652;8.516;2023-10-08T21:41:03;102332.77;;;15.97;100.00
37878;BME280;23715;53.652;8.516;2023-10-08T21:51:55;102317.80;;;15.81;100.00
37878;BME280;23715;53.652;8.516;2023-10-08T21:57:07;102311.22;;;15.95;100.00
37878;BME280;23715;53.652;8.516;2023-10-08T22:13:16;102264.30;;;15.99;100.00
37878;BME280;23715;53.652;8.516;2023-10-08T22:18:22;102281.41;;;15.90;100.00
37878;BME280;23715;53.652;8.516;2023-10-08T22:23:34;102272.31;;;16.00;100.00
37878;BME280;23715;53.652;8.516;2023-10-08T22:28:37;102243.16;;;16.08;100.00
37878;BME280;23715;53.652;8.516;2023-10-08T22:33:42;102228.31;;;16.12;100.00
37878;BME280;23715;53.652;8.516;2023-10-08T22:38:44;102195.75;;;15.97;100.00
37878;BME280;23715;53.652;8.516;2023-10-08T22:43:52;102190.41;;;16.01;100.00
37878;BME280;23715;53.652;8.516;2023-10-08T22:48:49;102165.18;;;16.10;100.00
37878;BME280;23715;53.652;8.516;2023-10-08T22:53:50;102140.45;;;16.04;100.00
37878;BME280;23715;53.652;8.516;2023-10-08T22:58:51;102206.34;;;16.00;100.00
37878;BME280;23715;53.652;8.516;2023-10-08T23:03:53;102186.08;;;16.04;100.00
37878;BME280;23715;53.652;8.516;2023-10-08T23:08:56;102160.30;;;15.89;100.00
37878;BME280;23715;53.652;8.516;2023-10-08T23:13:57;102148.52;;;15.84;100.00
37878;BME280;23715;53.652;8.516;2023-10-08T23:19:01;102205.86;;;15.79;100.00
37878;BME280;23715;53.652;8.516;2023-10-08T23:24:03;102230.59;;;16.07;100.00
37878;BME280;23715;53.652;8.516;2023-10-08T23:29:08;102208.30;;;16.04;100.00
37878;BME280;23715;53.652;8.516;2023-10-08T23:34:15;102189.55;;;15.85;100.00
37878;BME280;23715;53.652;8.516;2023-10-08T23:39:14;102157.33;;;15.76;100.00
37878;BME280;23715;53.652;8.516;2023-10-08T23:44:21;102151.52;;;15.70;100.00
37878;BME280;23715;53.652;8.516;2023-10-08T23:49:29;102143.00;;;15.74;100.00
37878;BME280;23715;53.652;8.516;2023-10-08T23:54:32;102154.45;;;15.72;100.00
37878;BME280;23715;53.652;8.516;2023-10-08T23:59:40;102158.97;;;15.62;100.00
